Time;durP1;ratioP1;P1;durP2;ratioP2;P2;SDS_P1;SDS_P2;PMS_P1;PMS_P2;Temp;Humidity;BMP_temperature;BMP_pressure;BME280_temperature;BME280_humidity;BME280_pressure;Samples;Min_cycle;Max_cycle;Signal;HPM_P1;HPM_P2
2023/10/01 00:00:01;;;;;;;14.77;5.80;;;;;;;7.82;100.00;93998.25;2096611;28;20744;-82
2023/10/01 00:01:03;;;;;;;13.02;5.13;;;;;;;7.80;100.00;93989.84;2088518;28;20052;-82
2023/10/01 00:02:04;;;;;;;14.20;5.65;;;;;;;7.72;100.00;93995.53;2081721;28;20061;-81
2023/10/01 00:03:06;;;;;;;13.75;6.18;;;;;;;7.70;100.00;93997.81;2081026;28;20099;-81
2023/10/01 00:04:07;;;;;;;13.00;5.85;;;;;;;7.75;100.00;93998.22;2088691;28;20025;-82
2023/10/01 00:05:10;;;;;;;13.18;5.68;;;;;;;7.62;100.00;93998.94;2088494;28;20051;-81
2023/10/01 00:06:14;;;;;;;14.93;5.38;;;;;;;7.78;100.00;93999.38;2089543;28;20028;-82
2023/10/01 00:07:15;;;;;;;11.77;5.20;;;;;;;7.78;100.00;93999.38;2092863;28;20497;-82
2023/10/01 00:08:16;;;;;;;14.55;6.35;;;;;;;7.71;100.00;94002.75;2068151;28;20679;-82
2023/10/01 00:09:19;;;;;;;17.00;6.05;;;;;;;7.75;100.00;94000.13;2080111;28;20033;-81
2023/10/01 00:10:22;;;;;;;13.43;5.78;;;;;;;7.77;100.00;94011.13;2093766;28;20097;-81
2023/10/01 00:11:22;;;;;;;14.27;6.50;;;;;;;7.76;100.00;93998.97;2088776;28;20029;-80
2023/10/01 00:12:23;;;;;;;15.73;6.47;;;;;;;7.79;100.00;93998.22;2088306;28;20044;-81
2023/10/01 00:13:26;;;;;;;11.93;5.65;;;;;;;7.83;100.00;94002.41;2079690;28;20032;-81
2023/10/01 00:14:27;;;;;;;15.35;6.00;;;;;;;7.75;100.00;94000.88;2084949;28;20055;-80
2023/10/01 00:15:30;;;;;;;14.38;5.50;;;;;;;7.70;100.00;93998.56;2090581;28;20025;-81
2023/10/01 00:16:31;;;;;;;14.23;5.95;;;;;;;7.70;100.00;94005.81;2088367;28;20031;-80
2023/10/01 00:17:32;;;;;;;16.75;6.32;;;;;;;7.82;100.00;94003.56;2080407;28;20030;-82
2023/10/01 00:18:34;;;;;;;13.55;5.53;;;;;;;7.72;100.00;93998.19;2075870;28;20030;-83
2023/10/01 00:19:37;;;;;;;15.95;5.72;;;;;;;7.72;100.00;94012.25;2080594;28;20029;-81
2023/10/01 00:20:38;;;;;;;14.88;6.38;;;;;;;7.78;100.00;93999.38;2080193;28;20790;-80
2023/10/01 00:21:39;;;;;;;16.83;6.07;;;;;;;7.78;100.00;94005.44;2088045;28;20524;-82
2023/10/01 00:22:40;;;;;;;15.48;6.43;;;;;;;7.73;100.00;94003.16;2080111;28;20029;-83
2023/10/01 00:23:41;;;;;;;16.17;6.13;;;;;;;7.70;100.00;94008.47;2088758;28;20031;-81
2023/10/01 00:24:43;;;;;;;15.20;5.68;;;;;;;7.59;100.00;94005.75;2096689;28;20496;-81
2023/10/01 00:25:45;;;;;;;13.70;6.03;;;;;;;7.60;100.00;94001.97;2096178;28;20032;-80
2023/10/01 00:26:46;;;;;;;13.25;5.70;;;;;;;7.67;100.00;94001.97;2090826;28;20092;-82
2023/10/01 00:27:47;;;;;;;15.70;5.93;;;;;;;7.56;100.00;94007.28;2086017;28;20025;-82
2023/10/01 00:28:51;;;;;;;14.63;6.45;;;;;;;7.51;100.00;94001.56;2077733;28;20045;-81
2023/10/01 00:29:52;;;;;;;14.27;5.78;;;;;;;7.51;100.00;94007.63;2091926;28;20264;-82
2023/10/01 00:30:53;;;;;;;15.18;5.82;;;;;;;7.51;100.00;94004.97;2081116;28;20029;-82
2023/10/01 00:31:55;;;;;;;14.85;5.65;;;;;;;7.55;100.00;94005.75;2097166;28;20048;-82
2023/10/01 00:32:56;;;;;;;14.25;6.30;;;;;;;7.48;100.00;94002.28;2094602;28;20090;-81
2023/10/01 00:33:57;;;;;;;11.48;5.55;;;;;;;7.50;100.00;94003.44;2087027;28;20051;-80
2023/10/01 00:34:58;;;;;;;17.45;6.20;;;;;;;7.47;100.00;94001.53;2089210;28;20474;-81
2023/10/01 00:35:59;;;;;;;12.18;5.93;;;;;;;7.43;100.00;94005.31;2089378;28;20040;-82
2023/10/01 00:37:00;;;;;;;17.15;6.60;;;;;;;7.50;100.00;94005.31;2081057;28;20431;-81
2023/10/01 00:38:01;;;;;;;14.82;5.93;;;;;;;7.43;100.00;93997.34;2087475;28;20032;-81
2023/10/01 00:39:03;;;;;;;16.63;6.03;;;;;;;7.46;100.00;94002.69;2092007;28;20442;-83
2023/10/01 00:40:06;;;;;;;14.63;6.00;;;;;;;7.38;100.00;93995.78;2083440;28;20037;-83
2023/10/01 00:41:08;;;;;;;14.43;5.50;;;;;;;7.32;100.00;93994.59;2081332;28;20025;-81
2023/10/01 00:42:09;;;;;;;12.70;5.38;;;;;;;7.40;100.00;93998.06;2086269;28;20021;-82
2023/10/01 00:43:11;;;;;;;13.88;5.88;;;;;;;7.38;100.00;93997.69;2089728;28;20032;-80
2023/10/01 00:44:13;;;;;;;16.38;5.93;;;;;;;7.38;100.00;94003.00;2081278;28;20030;-81
2023/10/01 00:45:14;;;;;;;14.32;5.65;;;;;;;7.45;100.00;94000.38;2084284;28;20508;-81
2023/10/01 00:46:18;;;;;;;12.13;5.85;;;;;;;7.43;100.00;94006.06;2081208;28;20029;-81
2023/10/01 00:47:21;;;;;;;15.43;6.25;;;;;;;7.39;100.00;94009.84;2079802;28;20045;-82
2023/10/01 00:48:23;;;;;;;13.63;6.05;;;;;;;7.45;100.00;94001.13;2081177;28;20356;-82
2023/10/01 00:49:25;;;;;;;13.35;5.00;;;;;;;7.49;100.00;94007.22;2081547;28;20352;-83
2023/10/01 00:50:28;;;;;;;15.30;6.25;;;;;;;7.48;100.00;94008.38;2085578;28;20025;-81
2023/10/01 00:51:32;;;;;;;14.73;5.63;;;;;;;7.50;100.00;94000.00;2098130;28;20381;-82
2023/10/01 00:52:33;;;;;;;13.18;5.07;;;;;;;7.43;100.00;94000.75;2089533;28;20025;-81
2023/10/01 00:53:34;;;;;;;14.50;5.38;;;;;;;7.40;100.00;94006.06;2089139;28;20021;-81
2023/10/01 00:54:35;;;;;;;15.52;6.13;;;;;;;7.33;100.00;94004.09;2089378;28;20044;-83
2023/10/01 00:55:37;;;;;;;15.13;5.97;;;;;;;7.34;100.00;94000.34;2085858;28;20051;-81
2023/10/01 00:56:39;;;;;;;13.27;5.50;;;;;;;7.24;100.00;94001.03;2081717;28;20421;-81
2023/10/01 00:57:44;;;;;;;14.48;6.50;;;;;;;7.30;100.00;93997.66;2082682;28;20544;-82
2023/10/01 00:58:45;;;;;;;14.48;6.00;;;;;;;7.37;100.00;93993.50;2085976;28;20056;-82
2023/10/01 00:59:48;;;;;;;13.98;5.97;;;;;;;7.39;100.00;93996.56;2081046;28;20032;-83
2023/10/01 01:00:49;;;;;;;15.73;6.70;;;;;;;7.31;100.00;94001.06;2095139;28;20028;-83
2023/10/01 01:01:50;;;;;;;16.60;5.90;;;;;;;7.33;100.00;94001.44;2090118;28;20539;-82
2023/10/01 01:03:00;;;;;;;13.55;5.35;;;;;;;7.29;100.00;94001.44;2097105;28;20107;-82
2023/10/01 01:04:07;;;;;;;;;;;;;;;7.24;100.00;93993.84;2097573;28;20024;-81
2023/10/01 01:06:36;;;;;;;15.25;5.82;;;;;;;7.31;100.00;94001.81;2080700;28;20209;-83
2023/10/01 01:07:40;;;;;;;11.30;4.95;;;;;;;7.32;100.00;93999.94;2096287;28;20039;-79
2023/10/01 01:08:49;;;;;;;12.32;6.47;;;;;;;7.25;100.00;93994.59;2097699;28;20078;-82
2023/10/01 01:09:50;;;;;;;14.68;5.30;;;;;;;7.23;100.00;93994.19;2109605;28;20110;-82
2023/10/01 01:10:52;;;;;;;14.63;5.47;;;;;;;7.21;100.00;93991.91;2099302;28;20076;-81
2023/10/01 01:11:53;;;;;;;14.65;6.43;;;;;;;7.25;100.00;93992.69;2104851;28;20082;-83
2023/10/01 01:12:54;;;;;;;12.80;5.07;;;;;;;7.31;100.00;93993.84;2089205;28;20021;-83
2023/10/01 01:13:57;;;;;;;13.10;7.00;;;;;;;7.32;100.00;93998.03;2101198;28;20125;-81
2023/10/01 01:14:58;;;;;;;12.38;5.90;;;;;;;7.31;100.00;93993.09;2089624;28;20026;-82
2023/10/01 01:16:00;;;;;;;13.52;6.45;;;;;;;7.30;100.00;93992.34;2088734;28;20405;-82
2023/10/01 01:17:02;;;;;;;14.13;5.90;;;;;;;7.23;100.00;93994.19;2087017;28;20036;-81
2023/10/01 01:18:13;;;;;;;12.23;5.68;;;;;;;7.20;100.00;94001.03;2089440;28;20017;-82
2023/10/01 01:19:15;;;;;;;14.05;5.60;;;;;;;7.12;100.00;94001.38;2095461;28;20025;-82
2023/10/01 01:20:16;;;;;;;12.50;5.10;;;;;;;7.16;100.00;94002.91;2082035;28;20516;-82
2023/10/01 01:21:18;;;;;;;13.73;5.53;;;;;;;7.15;100.00;94004.00;2089258;28;20354;-81
2023/10/01 01:22:28;;;;;;;12.77;5.28;;;;;;;7.23;100.00;93989.63;2092979;28;20021;-82
2023/10/01 01:23:31;;;;;;;;;;;;;;;7.16;100.00;93988.84;2082481;28;20072;-81
2023/10/01 01:24:32;;;;;;;11.50;4.88;;;;;;;7.14;100.00;93991.09;2080770;28;19920;-83
2023/10/01 01:25:33;;;;;;;13.35;5.68;;;;;;;7.22;100.00;93990.00;2079343;28;20064;-81
2023/10/01 01:26:37;;;;;;;11.43;5.43;;;;;;;7.21;100.00;93983.19;2072969;28;20022;-82
2023/10/01 01:27:38;;;;;;;13.23;5.50;;;;;;;7.16;100.00;93986.94;2087420;28;20021;-82
2023/10/01 01:28:41;;;;;;;15.65;6.65;;;;;;;7.20;100.00;93981.63;2085509;28;20048;-82
2023/10/01 01:29:44;;;;;;;11.93;5.35;;;;;;;7.15;100.00;93982.75;2089348;28;20088;-82
2023/10/01 01:30:47;;;;;;;13.02;5.03;;;;;;;7.19;100.00;93985.44;2089255;28;20078;-81
2023/10/01 01:32:02;;;;;;;10.80;5.25;;;;;;;7.22;100.00;93979.38;2081027;28;20478;-82
2023/10/01 01:33:03;;;;;;;11.32;5.15;;;;;;;7.26;100.00;93982.81;2084842;28;20525;-82
2023/10/01 01:34:12;;;;;;;13.30;5.70;;;;;;;7.10;100.00;93985.00;2080625;28;20026;-81
2023/10/01 01:35:14;;;;;;;14.55;5.93;;;;;;;7.11;100.00;93984.63;2074916;28;20053;-83
2023/10/01 01:36:23;;;;;;;14.13;6.10;;;;;;;7.09;100.00;93980.81;2091472;28;20024;-81
2023/10/01 01:39:13;;;;;;;14.93;5.25;;;;;;;7.07;100.00;93970.56;2099670;28;20024;-83
2023/10/01 01:41:48;;;;;;;11.98;4.97;;;;;;;6.89;100.00;93985.63;2084090;28;21120;-82
2023/10/01 01:42:49;;;;;;;13.43;5.15;;;;;;;6.94;100.00;93972.03;2096952;28;20023;-83
2023/10/01 01:43:50;;;;;;;13.90;5.78;;;;;;;6.92;100.00;93976.94;2088753;28;20075;-80
2023/10/01 01:46:11;;;;;;;16.13;6.03;;;;;;;6.90;100.00;93973.91;2099565;28;20028;-81
2023/10/01 01:47:12;;;;;;;12.80;5.05;;;;;;;6.89;100.00;93973.13;2097121;28;20470;-82
2023/10/01 01:49:49;;;;;;;13.80;5.13;;;;;;;6.98;100.00;93978.09;2084587;28;20040;-82
2023/10/01 01:50:54;;;;;;;16.55;5.25;;;;;;;6.82;100.00;93979.16;2084062;28;20695;-81
2023/10/01 01:52:03;;;;;;;14.00;5.50;;;;;;;6.78;100.00;93977.59;2075115;28;20033;-80
2023/10/01 01:53:04;;;;;;;11.85;5.20;;;;;;;6.70;100.00;93979.44;2091614;28;20024;-82
2023/10/01 01:54:05;;;;;;;12.35;5.70;;;;;;;6.67;100.00;93979.41;2109741;28;20023;-81
2023/10/01 01:55:23;;;;;;;15.07;6.07;;;;;;;6.66;100.00;93980.56;2097101;28;20055;-82
2023/10/01 01:56:23;;;;;;;12.48;5.07;;;;;;;6.71;100.00;93988.16;2090965;28;20021;-82
2023/10/01 01:57:28;;;;;;;12.93;4.97;;;;;;;6.69;100.00;93979.81;2092299;28;20050;-82
2023/10/01 01:58:30;;;;;;;10.55;5.25;;;;;;;6.64;100.00;93977.50;2097552;28;20090;-80
2023/10/01 01:59:31;;;;;;;10.10;5.32;;;;;;;6.68;100.00;93975.66;2088830;28;20132;-80
2023/10/01 02:00:35;;;;;;;13.07;5.32;;;;;;;6.63;100.00;93971.44;2089424;28;20135;-81
2023/10/01 02:01:36;;;;;;;16.15;5.65;;;;;;;6.71;100.00;93970.34;2081404;28;20026;-80
2023/10/01 02:02:38;;;;;;;12.70;5.03;;;;;;;6.73;100.00;93972.66;2088692;28;20021;-81
2023/10/01 02:03:51;;;;;;;13.65;5.70;;;;;;;6.66;100.00;93978.66;2089019;28;20108;-82
2023/10/01 02:05:08;;;;;;;13.77;5.32;;;;;;;6.56;100.00;93972.13;2091920;28;20024;-81
2023/10/01 02:06:09;;;;;;;14.00;5.43;;;;;;;6.59;100.00;93977.88;2096587;28;20056;-82
2023/10/01 02:07:11;;;;;;;13.13;4.82;;;;;;;6.69;100.00;93975.28;2089548;28;20028;-81
2023/10/01 02:08:34;;;;;;;12.32;5.00;;;;;;;6.60;100.00;93966.84;2097018;28;20051;-81
2023/10/01 02:09:36;;;;;;;14.98;5.65;;;;;;;6.63;100.00;93973.31;2100017;28;20035;-81
2023/10/01 02:10:44;;;;;;;12.50;5.00;;;;;;;6.66;100.00;93968.03;2089641;28;20680;-81
2023/10/01 02:11:48;;;;;;;12.38;5.15;;;;;;;6.69;100.00;93969.97;2089746;28;20869;-82
2023/10/01 02:12:50;;;;;;;13.18;5.18;;;;;;;6.74;100.00;93966.94;2094477;28;20021;-83
2023/10/01 02:13:54;;;;;;;16.95;6.15;;;;;;;6.70;100.00;93962.75;2080505;28;20056;-82
2023/10/01 02:14:56;;;;;;;15.13;5.53;;;;;;;6.77;100.00;93970.78;2072966;28;20026;-82
2023/10/01 02:16:18;;;;;;;12.55;5.40;;;;;;;6.73;100.00;93967.31;2084112;28;20119;-82
2023/10/01 02:17:18;;;;;;;14.82;6.03;;;;;;;6.67;100.00;93961.59;2092408;28;20021;-82
2023/10/01 02:18:20;;;;;;;14.75;5.18;;;;;;;6.68;100.00;93960.47;2088902;28;20063;-82
2023/10/01 02:19:22;;;;;;;12.57;5.10;;;;;;;6.65;100.00;93963.09;2080754;28;20435;-82
2023/10/01 02:20:27;;;;;;;12.20;5.25;;;;;;;6.70;100.00;93965.41;2080695;28;20033;-82
2023/10/01 02:23:26;;;;;;;;;;;;;;;6.13;100.00;93957.75;2139525;27;20181;-81
2023/10/01 02:25:49;;;;;;;10.13;5.25;;;;;;;6.11;100.00;93953.97;2124888;27;20019;-80
2023/10/01 02:26:53;;;;;;;13.82;5.60;;;;;;;6.16;100.00;93948.31;2130305;27;20460;-81
2023/10/01 02:28:10;;;;;;;12.82;4.97;;;;;;;6.18;100.00;93949.44;2116201;28;20024;-81
2023/10/01 02:29:13;;;;;;;11.80;5.18;;;;;;;6.22;100.00;93952.91;2120802;27;20045;-82
2023/10/01 02:30:16;;;;;;;11.40;5.18;;;;;;;6.10;100.00;93949.75;2105090;28;20016;-80
2023/10/01 02:31:17;;;;;;;13.30;5.80;;;;;;;6.13;100.00;93949.78;2105400;28;20455;-82
2023/10/01 02:32:19;;;;;;;11.35;5.18;;;;;;;6.09;100.00;93943.69;2113025;28;20365;-79
2023/10/01 02:33:20;;;;;;;12.02;5.38;;;;;;;6.03;100.00;93953.13;2112623;28;20034;-80
2023/10/01 02:34:22;;;;;;;12.75;5.47;;;;;;;6.05;100.00;93942.91;2114062;27;20027;-80
2023/10/01 02:35:35;;;;;;;13.52;5.88;;;;;;;6.10;100.00;93952.41;2120846;27;20030;-82
2023/10/01 02:36:36;;;;;;;9.80;4.63;;;;;;;6.01;100.00;93945.53;2120829;27;20562;-80
2023/10/01 02:37:40;;;;;;;13.25;5.00;;;;;;;6.03;100.00;93956.53;2126310;27;20467;-80
2023/10/01 02:38:45;;;;;;;13.02;5.13;;;;;;;6.00;100.00;93954.59;2126480;27;20056;-81
2023/10/01 02:39:46;;;;;;;14.10;5.07;;;;;;;6.02;100.00;93949.72;2113897;28;20024;-81
2023/10/01 02:40:48;;;;;;;15.68;5.32;;;;;;;6.08;100.00;93947.47;2121055;27;20027;-81
2023/10/01 02:43:09;;;;;;;15.63;5.90;;;;;;;6.03;100.00;93948.59;2128442;27;20030;-82
2023/10/01 02:44:11;;;;;;;10.90;4.82;;;;;;;6.03;100.00;93950.47;2120585;28;20038;-81
2023/10/01 02:45:30;;;;;;;10.75;4.28;;;;;;;5.96;100.00;93953.81;2112363;27;20024;-79
2023/10/01 02:46:31;;;;;;;13.18;5.15;;;;;;;5.96;100.00;93950.41;2117482;27;20030;-80
2023/10/01 02:47:34;;;;;;;11.80;4.82;;;;;;;6.00;100.00;93948.53;2121019;27;20042;-80
2023/10/01 02:48:36;;;;;;;12.35;5.45;;;;;;;6.00;100.00;93951.19;2120555;28;20015;-80
2023/10/01 02:49:47;;;;;;;12.82;5.28;;;;;;;5.97;100.00;93942.09;2107171;27;20039;-80
2023/10/01 02:50:51;;;;;;;10.93;5.03;;;;;;;6.07;100.00;93947.84;2113963;28;20020;-80
2023/10/01 02:51:52;;;;;;;11.10;5.13;;;;;;;5.95;100.00;93949.63;2112504;27;20023;-81
2023/10/01 02:52:55;;;;;;;12.63;5.22;;;;;;;6.04;100.00;93955.41;2112346;28;20012;-81
2023/10/01 02:54:05;;;;;;;12.43;5.05;;;;;;;5.95;100.00;93946.22;2129657;27;20487;-81
2023/10/01 02:55:17;;;;;;;13.23;4.78;;;;;;;6.00;100.00;93951.19;2117043;27;20087;-80
2023/10/01 02:56:18;;;;;;;12.52;4.97;;;;;;;6.03;100.00;93950.47;2112569;28;20032;-80
2023/10/01 02:57:24;;;;;;;13.15;5.10;;;;;;;5.94;100.00;93945.47;2113148;27;20077;-80
2023/10/01 02:58:28;;;;;;;13.25;5.07;;;;;;;5.96;100.00;93939.78;2134736;27;20075;-79
2023/10/01 02:59:29;;;;;;;10.70;4.75;;;;;;;6.03;100.00;93945.94;2130049;27;20030;-80
2023/10/01 03:00:31;;;;;;;11.85;5.18;;;;;;;6.03;100.00;93950.47;2119927;28;20054;-81
2023/10/01 03:01:37;;;;;;;14.68;4.95;;;;;;;5.96;100.00;93953.06;2109017;27;20034;-81
2023/10/01 03:02:39;;;;;;;12.75;5.25;;;;;;;5.95;100.00;93949.63;2130076;27;20034;-81
2023/10/01 03:03:41;;;;;;;10.88;5.22;;;;;;;5.78;100.00;93945.66;2121539;27;20027;-79
2023/10/01 03:04:42;;;;;;;11.63;4.72;;;;;;;5.82;100.00;93949.09;2104146;28;20198;-79
2023/10/01 03:05:46;;;;;;;12.45;4.82;;;;;;;5.80;100.00;93945.31;2120824;27;20415;-81
2023/10/01 03:06:54;;;;;;;9.93;4.78;;;;;;;5.76;100.00;93947.16;2127140;27;20023;-81
2023/10/01 03:08:03;;;;;;;11.57;5.05;;;;;;;5.81;100.00;93933.56;2121140;27;20156;-80
2023/10/01 03:09:04;;;;;;;11.18;4.47;;;;;;;5.80;100.00;93935.47;2129466;27;20015;-79
2023/10/01 03:10:16;;;;;;;10.98;5.93;;;;;;;5.75;100.00;93935.00;2126455;27;20389;-79
2023/10/01 03:11:17;;;;;;;13.02;5.25;;;;;;;5.78;100.00;93936.94;2120369;27;20084;-80
2023/10/01 03:12:27;;;;;;;10.90;4.70;;;;;;;5.78;100.00;93935.03;2105046;28;20449;-80
2023/10/01 03:13:30;;;;;;;12.00;5.13;;;;;;;5.80;100.00;93932.03;2106045;28;20047;-81
2023/10/01 03:14:34;;;;;;;16.27;5.95;;;;;;;5.81;100.00;93936.22;2113311;27;20026;-80
2023/10/01 03:15:35;;;;;;;12.35;5.18;;;;;;;5.79;100.00;93935.81;2112682;28;20666;-81
2023/10/01 03:17:55;;;;;;;11.38;4.65;;;;;;;5.71;100.00;93939.53;2122629;27;20031;-82
2023/10/01 03:19:03;;;;;;;12.10;5.20;;;;;;;5.75;100.00;93924.41;2122961;27;20113;-80
2023/10/01 03:21:07;;;;;;;9.40;4.70;;;;;;;5.68;100.00;93933.06;2112172;28;20028;-82
2023/10/01 03:23:01;;;;;;;12.02;5.28;;;;;;;5.74;100.00;93931.59;2121571;27;20044;-80
2023/10/01 03:24:03;;;;;;;13.30;5.43;;;;;;;5.73;100.00;93937.28;2112836;28;20031;-80
2023/10/01 03:25:11;;;;;;;9.15;4.35;;;;;;;5.76;100.00;93936.56;2115840;27;20020;-80
2023/10/01 03:26:19;;;;;;;11.05;4.97;;;;;;;5.72;100.00;93936.50;2113028;28;20074;-80
2023/10/01 03:27:25;;;;;;;14.48;5.32;;;;;;;5.70;100.00;93932.69;2106096;28;20101;-80
2023/10/01 03:29:13;;;;;;;11.80;5.25;;;;;;;5.65;100.00;93930.38;2103106;28;20020;-81
2023/10/01 03:30:02;;;;;;;10.80;4.68;;;;;;;5.75;100.00;93933.13;2114850;27;20336;-81
2023/10/01 03:31:09;;;;;;;14.25;5.13;;;;;;;5.69;100.00;93937.22;2120499;28;20100;-80
2023/10/01 03:32:28;;;;;;;10.48;4.55;;;;;;;5.67;100.00;93938.75;2096910;28;20147;-80
2023/10/01 03:33:30;;;;;;;12.27;5.15;;;;;;;5.63;100.00;93936.03;2100498;28;20025;-81
2023/10/01 03:34:31;;;;;;;15.55;5.35;;;;;;;5.63;100.00;93938.69;2099420;28;20562;-80
2023/10/01 03:35:32;;;;;;;12.18;5.10;;;;;;;5.70;100.00;93933.44;2106569;28;20024;-81
2023/10/01 03:36:42;;;;;;;11.25;5.03;;;;;;;5.72;100.00;93936.50;2098154;28;20028;-81
2023/10/01 03:37:43;;;;;;;11.38;4.93;;;;;;;5.68;100.00;93934.94;2107903;28;20020;-81
2023/10/01 03:38:45;;;;;;;16.00;5.95;;;;;;;5.67;100.00;93933.44;2114040;28;20035;-80
2023/10/01 03:39:50;;;;;;;10.65;4.97;;;;;;;5.74;100.00;93928.94;2114909;27;20035;-81
2023/10/01 03:40:59;;;;;;;12.77;5.00;;;;;;;5.77;100.00;93932.78;2107111;28;20141;-81
2023/10/01 03:42:13;;;;;;;12.93;4.82;;;;;;;5.73;100.00;93937.28;2107729;28;20024;-80
2023/10/01 03:43:18;;;;;;;11.55;4.90;;;;;;;5.74;100.00;93923.63;2099634;28;20484;-80
2023/10/01 03:45:55;;;;;;;9.75;4.35;;;;;;;5.72;100.00;93935.75;2103342;28;20020;-82
2023/10/01 03:46:56;;;;;;;13.75;5.50;;;;;;;5.67;100.00;93928.88;2099902;28;20093;-82
2023/10/01 03:47:58;;;;;;;13.07;5.63;;;;;;;5.71;100.00;93935.00;2098257;28;20485;-81
2023/10/01 03:49:00;;;;;;;10.45;5.13;;;;;;;5.67;100.00;93928.88;2106737;28;20031;-82
2023/10/01 03:50:01;;;;;;;14.48;5.55;;;;;;;5.72;100.00;93931.22;2106556;28;20472;-80
2023/10/01 03:51:03;;;;;;;13.68;5.30;;;;;;;5.77;100.00;93935.41;2106380;28;20024;-81
2023/10/01 03:52:09;;;;;;;12.07;5.30;;;;;;;5.82;100.00;93932.44;2120156;27;20023;-81
2023/10/01 03:53:11;;;;;;;11.77;5.20;;;;;;;5.76;100.00;93931.25;2106965;28;20024;-81
2023/10/01 03:54:14;;;;;;;9.70;4.65;;;;;;;5.82;100.00;93933.19;2106524;28;20147;-81
2023/10/01 03:55:26;;;;;;;12.85;5.22;;;;;;;5.74;100.00;93941.44;2106396;28;20020;-81
2023/10/01 03:56:30;;;;;;;9.13;4.43;;;;;;;5.78;100.00;93935.03;2109550;27;20020;-80
2023/10/01 03:57:31;;;;;;;10.55;4.63;;;;;;;5.88;100.00;93927.53;2115386;27;20019;-81
2023/10/01 03:58:36;;;;;;;10.30;4.88;;;;;;;5.90;100.00;93939.34;2104550;28;20059;-81
2023/10/01 03:59:37;;;;;;;13.68;5.03;;;;;;;5.87;100.00;93926.03;2099042;28;20116;-81
2023/10/01 04:00:41;;;;;;;12.40;5.00;;;;;;;5.91;100.00;93935.53;2098836;28;20197;-81
2023/10/01 04:01:59;;;;;;;14.43;5.10;;;;;;;5.91;100.00;93946.16;2100647;28;20460;-82
2023/10/01 04:03:01;;;;;;;13.43;5.47;;;;;;;5.88;100.00;93938.16;2108630;28;20143;-79
2023/10/01 04:04:02;;;;;;;14.38;5.00;;;;;;;5.89;100.00;93943.13;2114225;27;20020;-82
2023/10/01 04:05:05;;;;;;;12.95;4.80;;;;;;;5.88;100.00;93938.16;2114802;28;20023;-79
2023/10/01 04:06:06;;;;;;;8.50;4.65;;;;;;;5.86;100.00;93940.44;2106426;28;20020;-80
2023/10/01 04:07:10;;;;;;;13.68;4.80;;;;;;;5.81;100.00;93944.19;2106275;28;20465;-82
2023/10/01 04:08:12;;;;;;;11.43;4.68;;;;;;;5.90;100.00;93949.19;2115060;27;20031;-81
2023/10/01 04:09:19;;;;;;;9.40;4.40;;;;;;;5.89;100.00;93937.81;2114474;28;20112;-82
2023/10/01 04:11:49;;;;;;;8.68;3.83;;;;;;;5.92;100.00;93939.75;2104078;28;20508;-80
2023/10/01 04:12:54;;;;;;;8.57;3.50;;;;;;;5.92;100.00;93947.72;2100322;28;20024;-79
2023/10/01 04:14:08;;;;;;;8.82;3.85;;;;;;;5.91;100.00;93942.75;2112286;28;20447;-80
2023/10/01 04:15:09;;;;;;;8.77;3.70;;;;;;;5.93;100.00;93940.53;2110244;28;20034;-80
2023/10/01 04:16:15;;;;;;;7.05;3.28;;;;;;;5.86;100.00;93946.50;2090313;28;20021;-81
2023/10/01 04:17:19;;;;;;;6.78;3.15;;;;;;;5.79;100.00;93946.41;2107654;27;20070;-81
2023/10/01 04:18:21;;;;;;;5.13;3.00;;;;;;;5.84;100.00;93947.97;2114016;28;20023;-80
2023/10/01 04:19:24;;;;;;;6.90;3.30;;;;;;;5.79;100.00;93941.09;2098343;28;20439;-81
2023/10/01 04:20:28;;;;;;;5.43;2.97;;;;;;;5.73;100.00;93938.03;2106959;28;20031;-79
2023/10/01 04:21:29;;;;;;;5.18;2.40;;;;;;;5.74;100.00;93944.09;2115048;27;20030;-80
2023/10/01 04:22:30;;;;;;;5.18;2.75;;;;;;;5.77;100.00;93946.03;2105967;28;20032;-80
2023/10/01 04:23:47;;;;;;;6.18;3.15;;;;;;;5.65;100.00;93944.38;2091193;28;20447;-80
2023/10/01 04:25:01;;;;;;;3.78;2.38;;;;;;;5.68;100.00;93946.31;2100260;28;20027;-80
2023/10/01 04:26:07;;;;;;;4.35;2.45;;;;;;;5.76;100.00;93949.81;2101800;28;20028;-81
2023/10/01 04:27:23;;;;;;;3.90;2.42;;;;;;;5.71;100.00;93953.56;2102544;28;20457;-80
2023/10/01 04:28:24;;;;;;;4.43;2.17;;;;;;;5.76;100.00;93955.88;2116457;27;20177;-81
2023/10/01 04:29:44;;;;;;;4.70;2.38;;;;;;;5.76;100.00;93955.88;2106284;28;20036;-80
2023/10/01 04:30:51;;;;;;;4.07;2.30;;;;;;;5.76;100.00;93958.53;2106972;28;20020;-80
2023/10/01 04:32:01;;;;;;;4.07;2.00;;;;;;;5.75;100.00;93956.22;2114634;28;20028;-82
2023/10/01 04:33:17;;;;;;;5.07;2.20;;;;;;;5.73;100.00;93953.19;2106639;28;20488;-80
2023/10/01 04:34:19;;;;;;;5.70;2.20;;;;;;;5.75;100.00;93954.38;2116423;27;20119;-79
2023/10/01 04:35:22;;;;;;;6.30;2.38;;;;;;;5.79;100.00;93959.69;2114488;27;20134;-82
2023/10/01 04:36:25;;;;;;;4.68;2.50;;;;;;;5.75;100.00;93956.22;2115069;28;20027;-81
2023/10/01 04:37:40;;;;;;;3.70;2.60;;;;;;;5.72;100.00;93955.09;2100535;28;20021;-80
2023/10/01 04:38:43;;;;;;;4.53;1.83;;;;;;;5.74;100.00;93952.81;2104278;27;20020;-81
2023/10/01 04:39:44;;;;;;;4.63;2.67;;;;;;;5.65;100.00;93952.34;2106424;28;20028;-81
2023/10/01 04:40:50;;;;;;;5.40;2.72;;;;;;;5.63;100.00;93951.97;2106557;28;20020;-79
2023/10/01 04:41:58;;;;;;;6.68;2.90;;;;;;;5.62;100.00;93952.31;2105941;28;20078;-81
2023/10/01 04:43:05;;;;;;;7.00;3.42;;;;;;;5.62;100.00;93950.44;2103774;28;20031;-82
2023/10/01 04:44:13;;;;;;;6.10;3.40;;;;;;;5.55;100.00;93953.75;2098041;28;20119;-81
2023/10/01 04:45:23;;;;;;;6.07;3.38;;;;;;;5.55;100.00;93951.13;2108448;27;20020;-81
2023/10/01 04:46:30;;;;;;;7.50;3.75;;;;;;;5.50;100.00;93937.41;2122456;27;20093;-80
2023/10/01 04:47:36;;;;;;;9.55;3.70;;;;;;;5.51;100.00;93942.34;2114440;28;20023;-80
2023/10/01 04:48:39;;;;;;;9.95;3.75;;;;;;;5.41;100.00;93937.72;2106517;28;20074;-81
2023/10/01 04:49:41;;;;;;;9.88;4.53;;;;;;;5.48;100.00;93940.41;2106512;28;20043;-80
2023/10/01 04:50:45;;;;;;;9.80;4.00;;;;;;;5.63;100.00;93935.28;2106031;28;20050;-81
2023/10/01 04:51:47;;;;;;;7.43;3.75;;;;;;;5.66;100.00;93937.94;2098737;28;20457;-81
2023/10/01 04:52:48;;;;;;;9.60;4.22;;;;;;;5.59;100.00;93937.91;2106007;28;20027;-80
2023/10/01 04:53:51;;;;;;;10.00;4.03;;;;;;;5.55;100.00;93937.84;2108459;28;20054;-81
2023/10/01 04:54:55;;;;;;;11.20;4.55;;;;;;;5.65;100.00;93935.66;2106086;28;20020;-81
2023/10/01 04:56:00;;;;;;;9.82;4.43;;;;;;;5.59;100.00;93942.44;2098218;28;20016;-81
2023/10/01 04:57:08;;;;;;;11.30;4.47;;;;;;;5.63;100.00;93938.69;2108833;27;20024;-82
2023/10/01 04:58:12;;;;;;;11.23;4.72;;;;;;;5.60;100.00;93933.34;2114233;28;20051;-80
2023/10/01 04:59:15;;;;;;;10.18;4.70;;;;;;;5.53;100.00;93931.38;2102690;28;20028;-81
2023/10/01 05:00:16;;;;;;;13.02;4.50;;;;;;;5.52;100.00;93933.25;2104850;28;20016;-81
2023/10/01 05:01:24;;;;;;;10.90;4.70;;;;;;;5.51;100.00;93936.28;2106461;28;20107;-80
2023/10/01 05:02:29;;;;;;;8.23;4.68;;;;;;;5.47;100.00;93938.91;2113876;28;20110;-81
2023/10/01 05:03:39;;;;;;;11.40;5.15;;;;;;;5.42;100.00;93941.13;2113951;28;20443;-79
2023/10/01 05:04:41;;;;;;;12.68;4.35;;;;;;;5.39;100.00;93942.59;2105490;28;20031;-81
2023/10/01 05:05:43;;;;;;;13.95;4.88;;;;;;;5.33;100.00;93941.41;2092069;28;20051;-81
2023/10/01 05:06:59;;;;;;;10.45;4.43;;;;;;;5.35;100.00;93944.44;2097781;28;20477;-81
2023/10/01 05:08:01;;;;;;;11.68;5.22;;;;;;;5.37;100.00;93950.16;2109841;27;20410;-80
2023/10/01 05:09:07;;;;;;;11.07;4.60;;;;;;;5.38;100.00;93949.03;2120488;27;20061;-79
2023/10/01 05:10:12;;;;;;;10.15;4.95;;;;;;;5.41;100.00;93952.84;2105619;28;20028;-82
2023/10/01 05:11:16;;;;;;;10.23;4.70;;;;;;;5.37;100.00;93954.69;2110496;27;20420;-82
2023/10/01 05:12:19;;;;;;;12.07;4.88;;;;;;;5.39;100.00;93945.25;2113248;28;20503;-82
2023/10/01 05:13:22;;;;;;;10.15;4.60;;;;;;;5.38;100.00;93953.56;2114282;28;20496;-80
2023/10/01 05:14:23;;;;;;;10.57;4.90;;;;;;;5.39;100.00;93958.50;2105425;28;20051;-79
2023/10/01 05:15:25;;;;;;;12.50;4.90;;;;;;;5.33;100.00;93953.88;2089069;28;20029;-81
2023/10/01 05:16:26;;;;;;;9.48;4.47;;;;;;;5.31;100.00;93967.50;2105289;28;20436;-78
2023/10/01 05:17:30;;;;;;;10.48;4.32;;;;;;;5.15;100.00;93957.09;2107823;28;20035;-80